Time;durP1;ratioP1;P1;durP2;ratioP2;P2;SDS_P1;SDS_P2;PMS_P1;PMS_P2;Temp;Humidity;BMP_temperature;BMP_pressure;BME280_temperature;BME280_humidity;BME280_pressure;Samples;Min_cycle;Max_cycle;Signal;HPM_P1;HPM_P2
2021/10/15 00:01:12;;;;;;;15.82;10.55;;;;;;;8.32;78.57;99133.59;5024455;28;20029;-57
2021/10/15 00:03:37;;;;;;;18.15;11.75;;;;;;;8.24;79.47;99129.00;5020734;28;20467;-58
2021/10/15 00:06:03;;;;;;;17.75;11.40;;;;;;;7.88;79.08;99067.88;5021133;28;20429;-58
2021/10/15 00:08:28;;;;;;;18.23;11.15;;;;;;;8.17;79.65;99119.25;5020173;28;20022;-58
2021/10/15 00:10:53;;;;;;;17.98;10.68;;;;;;;8.14;79.85;99129.81;5019626;28;20712;-59
2021/10/15 00:13:19;;;;;;;16.40;10.63;;;;;;;7.94;80.27;99126.16;5020284;28;20026;-57
2021/10/15 00:15:45;;;;;;;18.02;10.48;;;;;;;7.85;80.64;99110.38;5017043;28;20103;-58
2021/10/15 00:18:10;;;;;;;18.60;11.63;;;;;;;8.03;80.08;99128.03;5022909;28;20057;-56
2021/10/15 00:20:35;;;;;;;16.65;11.55;;;;;;;8.07;80.19;99140.66;5021738;28;20037;-57
2021/10/15 00:23:01;;;;;;;16.95;10.98;;;;;;;8.09;79.83;99125.81;5025430;28;20025;-57
2021/10/15 00:25:27;;;;;;;16.33;11.15;;;;;;;7.83;79.95;99096.72;5025084;28;20035;-56
2021/10/15 00:27:52;;;;;;;14.80;10.80;;;;;;;7.97;80.25;99116.38;5035199;28;20025;-57
2021/10/15 00:30:18;;;;;;;16.92;10.85;;;;;;;7.70;80.54;99059.72;5023348;28;20135;-57
2021/10/15 00:32:43;;;;;;;17.13;10.43;;;;;;;7.96;80.38;99106.13;5034371;28;20481;-57
2021/10/15 00:35:08;;;;;;;15.23;10.57;;;;;;;7.83;79.56;99075.16;5026662;28;20021;-57
2021/10/15 00:37:34;;;;;;;16.30;10.77;;;;;;;8.00;79.97;99102.41;5018284;28;20691;-58
2021/10/15 00:39:59;;;;;;;17.23;10.80;;;;;;;7.97;80.25;99106.03;5032563;28;20079;-57
2021/10/15 00:42:25;;;;;;;16.48;10.90;;;;;;;7.95;79.53;99099.31;5030634;28;20090;-57
2021/10/15 00:44:50;;;;;;;15.18;10.20;;;;;;;8.03;79.45;99097.81;5002299;28;20037;-57
2021/10/15 00:47:16;;;;;;;14.77;10.48;;;;;;;8.00;79.64;99097.22;5016976;28;20022;-57
2021/10/15 00:49:41;;;;;;;16.02;10.55;;;;;;;7.85;80.00;99107.78;4998605;28;20045;-57
2021/10/15 00:52:09;;;;;;;16.13;10.65;;;;;;;7.86;79.80;99101.66;5029587;28;20034;-57
2021/10/15 00:54:35;;;;;;;16.00;10.05;;;;;;;7.98;79.72;99097.31;5017673;28;20108;-57
2021/10/15 00:57:01;;;;;;;16.60;10.75;;;;;;;7.94;79.77;99097.66;5027486;28;20106;-58
2021/10/15 00:59:27;;;;;;;15.48;11.20;;;;;;;7.81;79.38;99082.22;5028776;28;20033;-58
2021/10/15 01:01:52;;;;;;;17.02;11.32;;;;;;;7.86;80.25;99096.47;5027102;28;20068;-57
2021/10/15 01:04:18;;;;;;;19.20;11.68;;;;;;;7.44;80.03;99044.41;5025235;28;20047;-58
2021/10/15 01:06:43;;;;;;;18.15;10.68;;;;;;;7.76;80.13;99092.09;5028114;28;20471;-58
2021/10/15 01:09:09;;;;;;;18.25;11.20;;;;;;;7.73;80.19;99080.22;5025089;28;20022;-57
2021/10/15 01:11:35;;;;;;;15.98;10.65;;;;;;;7.44;80.19;99020.28;5015282;28;20025;-57
2021/10/15 01:14:02;;;;;;;16.58;10.90;;;;;;;7.77;80.23;99073.88;5035019;28;20272;-57
2021/10/15 01:16:31;;;;;;;18.25;11.07;;;;;;;7.81;80.61;99069.28;5014316;28;20593;-58
2021/10/15 01:18:59;;;;;;;17.60;11.00;;;;;;;7.77;80.05;99073.88;5022954;28;20060;-57
2021/10/15 01:21:25;;;;;;;15.77;10.57;;;;;;;7.69;80.79;99071.84;5030144;28;20025;-57
2021/10/15 01:23:51;;;;;;;18.10;11.48;;;;;;;7.38;82.15;99031.09;5018172;28;20111;-57
2021/10/15 01:26:16;;;;;;;18.85;11.30;;;;;;;7.41;81.54;99057.59;5022160;28;20063;-56
2021/10/15 01:28:42;;;;;;;23.30;11.35;;;;;;;7.39;81.21;99059.47;5022650;28;20377;-58
2021/10/15 01:31:07;;;;;;;15.82;10.88;;;;;;;7.54;81.04;99065.25;5029156;28;20025;-57
2021/10/15 01:33:33;;;;;;;17.92;12.02;;;;;;;7.69;80.46;99069.28;5010994;28;20045;-57
2021/10/15 01:35:59;;;;;;;18.13;10.80;;;;;;;7.70;80.21;99064.91;5022036;28;20033;-55
2021/10/15 01:38:24;;;;;;;17.00;10.63;;;;;;;7.71;80.41;99063.97;5028539;28;20029;-57
2021/10/15 01:40:50;;;;;;;15.63;10.38;;;;;;;7.13;81.92;99015.63;5016169;28;20033;-57
2021/10/15 01:43:23;;;;;;;16.45;10.88;;;;;;;7.08;81.75;99027.25;5015191;28;20040;-58
2021/10/15 01:45:50;;;;;;;15.85;10.77;;;;;;;7.37;81.41;99053.53;5004002;28;20031;-57
2021/10/15 01:48:16;;;;;;;15.63;10.90;;;;;;;7.44;80.90;99065.09;5015255;28;20519;-57
2021/10/15 01:50:42;;;;;;;16.20;10.15;;;;;;;7.56;81.03;99063.38;5025118;28;20033;-57
2021/10/15 01:53:08;;;;;;;14.57;10.38;;;;;;;7.51;80.53;99049.94;5008252;28;20564;-59
2021/10/15 01:55:33;;;;;;;18.13;11.05;;;;;;;7.33;81.46;99046.97;5023678;28;20030;-57
2021/10/15 01:57:59;;;;;;;16.02;10.20;;;;;;;7.64;79.86;99052.44;5019168;28;20440;-58
2021/10/15 02:00:24;;;;;;;14.80;10.32;;;;;;;7.63;79.57;99053.38;5021624;28;20022;-51
2021/10/15 02:02:50;;;;;;;16.15;10.45;;;;;;;7.54;80.55;99048.88;5019483;28;20136;-58
2021/10/15 02:05:16;;;;;;;16.05;10.75;;;;;;;7.42;80.47;99042.88;5029828;28;20488;-57
2021/10/15 02:07:43;;;;;;;16.30;10.85;;;;;;;7.13;80.83;99001.88;5025712;28;20037;-57
2021/10/15 02:10:09;;;;;;;17.48;10.73;;;;;;;7.47;80.44;99038.19;5030718;28;20248;-57
2021/10/15 02:12:35;;;;;;;18.15;10.57;;;;;;;7.49;79.90;99039.72;5028536;28;20111;-57
2021/10/15 02:15:00;;;;;;;18.40;11.05;;;;;;;7.49;80.08;99049.25;5020998;28;20120;-57
2021/10/15 02:17:26;;;;;;;17.60;11.43;;;;;;;7.13;80.19;99007.84;5027988;28;20257;-58
2021/10/15 02:19:51;;;;;;;16.52;11.13;;;;;;;7.10;80.14;99012.44;5023629;28;20051;-58
2021/10/15 02:22:17;;;;;;;17.02;10.88;;;;;;;7.48;79.40;99045.00;5014723;28;20052;-58
2021/10/15 02:24:42;;;;;;;14.23;10.45;;;;;;;7.58;79.89;99047.75;5012797;28;20037;-57
2021/10/15 02:27:08;;;;;;;16.73;11.05;;;;;;;7.59;79.69;99046.78;5019374;28;20108;-57
2021/10/15 02:29:33;;;;;;;16.15;11.18;;;;;;;7.56;79.66;99039.28;5012128;28;20034;-58
2021/10/15 02:31:59;;;;;;;16.33;11.00;;;;;;;7.50;79.73;99038.78;5026675;28;20508;-58
2021/10/15 02:34:24;;;;;;;17.20;10.70;;;;;;;7.36;80.04;99010.53;5019281;28;20053;-57
2021/10/15 02:36:50;;;;;;;17.27;11.00;;;;;;;7.43;80.57;99036.75;5008401;28;20043;-57
2021/10/15 02:39:15;;;;;;;17.88;10.98;;;;;;;7.32;80.59;99024.63;5026951;28;20057;-57
2021/10/15 02:41:41;;;;;;;15.23;10.55;;;;;;;7.42;80.87;99032.53;5015582;28;20044;-58
2021/10/15 02:44:08;;;;;;;17.35;10.93;;;;;;;7.20;81.17;99007.44;5027091;28;20596;-57
2021/10/15 02:46:34;;;;;;;18.00;10.77;;;;;;;7.34;81.55;99029.66;5016262;28;20116;-58
2021/10/15 02:49:00;;;;;;;15.07;10.98;;;;;;;7.39;80.87;99027.56;5024057;28;20026;-57
2021/10/15 02:51:25;;;;;;;17.20;10.65;;;;;;;7.54;80.49;99035.94;5016393;28;20033;-58
2021/10/15 02:53:51;;;;;;;16.00;11.20;;;;;;;7.22;80.28;98984.84;4997958;28;20022;-58
2021/10/15 02:56:16;;;;;;;17.27;10.57;;;;;;;7.48;81.30;99030.31;5019133;28;20041;-57
2021/10/15 02:58:42;;;;;;;16.80;10.73;;;;;;;7.48;81.43;99029.47;5018132;28;20037;-57
2021/10/15 03:01:07;;;;;;;16.92;10.90;;;;;;;7.22;80.37;98980.50;5031598;28;20021;-58
2021/10/15 03:03:33;;;;;;;15.80;10.48;;;;;;;7.49;81.17;99031.94;5021331;28;20037;-57
2021/10/15 03:05:59;;;;;;;17.15;10.77;;;;;;;7.40;81.51;99022.28;5022974;28;20388;-57
2021/10/15 03:08:24;;;;;;;15.77;10.45;;;;;;;7.08;81.24;98978.94;5025636;28;20526;-57
2021/10/15 03:10:50;;;;;;;16.33;10.38;;;;;;;7.44;80.67;99030.63;5021447;28;20021;-57
2021/10/15 03:13:15;;;;;;;14.27;10.05;;;;;;;7.39;81.23;99004.28;5028399;28;20040;-57
2021/10/15 03:15:40;;;;;;;15.07;10.15;;;;;;;7.52;81.19;99023.16;5015443;28;20033;-57
2021/10/15 03:18:06;;;;;;;13.88;10.43;;;;;;;7.51;81.42;99021.47;5027172;28;20597;-57
2021/10/15 03:20:31;;;;;;;14.07;9.77;;;;;;;7.44;81.56;99017.69;5003896;28;20021;-57
2021/10/15 03:22:57;;;;;;;14.43;9.57;;;;;;;7.13;82.04;98999.28;5021100;28;20548;-57
2021/10/15 03:25:22;;;;;;;17.85;11.15;;;;;;;7.27;81.57;99006.84;5021215;28;20111;-56
2021/10/15 03:27:48;;;;;;;16.05;10.52;;;;;;;7.46;81.08;99021.00;5022831;28;20043;-57
2021/10/15 03:30:13;;;;;;;15.45;10.50;;;;;;;7.47;80.17;99018.31;5027739;28;20061;-57
2021/10/15 03:32:39;;;;;;;16.67;10.20;;;;;;;7.48;80.10;99013.94;5026464;28;20664;-57
2021/10/15 03:35:04;;;;;;;18.33;10.68;;;;;;;7.45;80.69;99016.78;5030276;28;20030;-57
2021/10/15 03:37:30;;;;;;;14.65;10.50;;;;;;;7.40;81.58;99022.28;5022112;28;20053;-57
2021/10/15 03:39:55;;;;;;;17.15;10.38;;;;;;;7.36;81.24;99009.72;5031082;28;20553;-57
2021/10/15 03:42:21;;;;;;;15.55;10.38;;;;;;;7.29;81.86;99011.91;5024290;28;20061;-57
2021/10/15 03:44:46;;;;;;;17.63;10.00;;;;;;;7.36;81.91;99005.34;5028926;28;20108;-57
2021/10/15 03:47:12;;;;;;;16.35;10.65;;;;;;;7.38;83.07;99011.22;5027757;28;20132;-57
2021/10/15 03:49:37;;;;;;;15.63;9.82;;;;;;;7.37;82.42;99006.97;5021365;28;20566;-57
2021/10/15 03:52:03;;;;;;;15.38;10.40;;;;;;;7.24;83.39;98965.69;5030382;28;20476;-57
2021/10/15 03:54:29;;;;;;;16.83;9.73;;;;;;;7.51;83.91;99011.13;5014309;28;20033;-57
2021/10/15 03:56:54;;;;;;;14.60;9.50;;;;;;;7.51;83.33;99011.94;5026104;28;20029;-58
2021/10/15 03:59:20;;;;;;;15.15;9.98;;;;;;;7.57;84.10;99013.25;5026360;28;20013;-57
2021/10/15 04:01:45;;;;;;;14.07;9.38;;;;;;;7.63;87.43;99006.78;5006822;28;21049;-57
2021/10/15 04:04:10;;;;;;;13.05;9.10;;;;;;;7.66;88.85;98998.78;5010981;28;20366;-57
2021/10/15 04:06:36;;;;;;;14.82;9.35;;;;;;;7.68;88.76;98989.16;5030384;28;20029;-58
2021/10/15 04:09:02;;;;;;;15.85;9.02;;;;;;;7.89;89.05;99003.03;5032730;28;20551;-57
2021/10/15 04:11:27;;;;;;;13.25;8.75;;;;;;;8.00;88.65;98999.63;5022766;28;20417;-57
2021/10/15 04:13:53;;;;;;;14.57;8.65;;;;;;;8.03;88.69;98995.97;5022071;28;20045;-58
2021/10/15 04:16:18;;;;;;;14.20;8.80;;;;;;;8.03;88.75;98990.78;5034195;28;20487;-57
2021/10/15 04:18:44;;;;;;;12.65;8.75;;;;;;;7.94;88.28;98971.63;5025804;28;22084;-57
2021/10/15 04:21:09;;;;;;;14.48;8.73;;;;;;;7.76;88.61;98936.78;5026613;28;20060;-57
2021/10/15 04:23:34;;;;;;;13.50;8.15;;;;;;;8.01;88.40;98979.72;5025506;28;20022;-56
2021/10/15 04:26:00;;;;;;;12.68;7.93;;;;;;;8.07;88.38;98974.09;5020024;28;20444;-56
2021/10/15 04:28:25;;;;;;;13.25;8.43;;;;;;;8.10;88.54;98976.41;5020456;28;20091;-57
2021/10/15 04:30:51;;;;;;;11.25;8.15;;;;;;;8.14;88.00;98985.63;5024910;28;20052;-58
2021/10/15 04:33:16;;;;;;;13.88;8.77;;;;;;;8.18;88.10;98988.78;5017884;28;20484;-57
2021/10/15 04:35:43;;;;;;;13.02;7.90;;;;;;;7.89;87.27;98937.50;5015069;28;20172;-57
2021/10/15 04:38:08;;;;;;;12.50;8.25;;;;;;;8.04;87.54;98969.13;5019871;28;20092;-57
2021/10/15 04:40:34;;;;;;;11.52;7.90;;;;;;;8.04;87.35;98977.72;5024273;28;20116;-58
2021/10/15 04:42:59;;;;;;;12.98;8.18;;;;;;;8.01;86.63;98966.78;5032068;28;20527;-56
2021/10/15 04:45:25;;;;;;;13.77;7.88;;;;;;;7.80;86.82;98930.44;5024637;28;20033;-58
2021/10/15 04:47:50;;;;;;;11.48;7.03;;;;;;;8.12;86.33;98953.81;5029064;28;20052;-58
2021/10/15 04:50:15;;;;;;;11.40;7.60;;;;;;;7.98;86.21;98923.00;5019939;28;20026;-57
2021/10/15 04:52:41;;;;;;;11.05;7.72;;;;;;;8.30;85.51;98974.03;5014083;28;20045;-58
2021/10/15 04:55:07;;;;;;;12.00;7.63;;;;;;;8.01;85.18;98923.59;5017608;28;20142;-57
2021/10/15 04:57:32;;;;;;;11.93;7.78;;;;;;;8.24;85.44;98967.56;5004488;28;20698;-56
2021/10/15 04:59:58;;;;;;;15.68;10.43;;;;;;;8.09;85.67;98961.84;5002942;28;20753;-57
2021/10/15 05:02:23;;;;;;;14.40;8.00;;;;;;;8.09;85.78;98960.06;5013515;28;20041;-57
2021/10/15 05:04:49;;;;;;;14.75;8.70;;;;;;;8.19;85.65;98969.69;4991777;28;20116;-57
2021/10/15 05:07:14;;;;;;;12.45;8.05;;;;;;;8.22;85.37;98961.69;5011498;28;20017;-58
2021/10/15 05:09:41;;;;;;;11.85;8.07;;;;;;;8.26;85.21;98953.53;5011559;28;20026;-58
2021/10/15 05:12:13;;;;;;;14.18;8.77;;;;;;;8.03;85.13;98915.69;5012256;28;20534;-58
2021/10/15 05:14:39;;;;;;;14.18;8.30;;;;;;;8.04;85.24;98945.81;5001291;28;20033;-58
2021/10/15 05:17:05;;;;;;;14.90;8.77;;;;;;;8.09;85.49;98949.69;5012582;28;20357;-58
2021/10/15 05:19:30;;;;;;;14.50;8.60;;;;;;;8.13;84.46;98941.69;5014877;28;20503;-58
2021/10/15 05:21:56;;;;;;;12.65;8.32;;;;;;;8.05;85.19;98937.13;5013031;28;20024;-57
2021/10/15 05:24:21;;;;;;;14.85;8.32;;;;;;;7.95;84.26;98910.28;5023772;28;20034;-56
2021/10/15 05:26:47;;;;;;;12.38;7.85;;;;;;;8.19;85.53;98957.56;5016644;28;20843;-57
2021/10/15 05:29:12;;;;;;;13.75;7.70;;;;;;;8.17;85.38;98943.91;5012571;28;20033;-57
2021/10/15 05:31:37;;;;;;;12.95;7.70;;;;;;;8.22;84.67;98953.91;5018318;28;20034;-57
2021/10/15 05:34:03;;;;;;;15.10;8.48;;;;;;;8.17;84.68;98956.84;5023233;28;20047;-57
2021/10/15 05:36:28;;;;;;;14.73;8.45;;;;;;;8.17;85.12;98941.31;5017257;28;20017;-57
2021/10/15 05:38:54;;;;;;;13.63;8.38;;;;;;;8.13;85.09;98957.25;5020338;28;20025;-57
2021/10/15 05:41:19;;;;;;;13.05;8.48;;;;;;;8.15;85.71;98965.72;5016597;28;20105;-57
2021/10/15 05:43:45;;;;;;;12.13;8.27;;;;;;;7.88;85.26;98915.13;5014556;28;20033;-57
2021/10/15 05:46:10;;;;;;;13.13;8.02;;;;;;;8.07;85.84;98953.38;5015404;28;20735;-57
2021/10/15 05:48:36;;;;;;;12.73;8.43;;;;;;;8.14;85.38;98957.13;5022227;28;20404;-57
2021/10/15 05:51:03;;;;;;;14.85;8.95;;;;;;;8.13;85.31;98954.66;5027165;28;20126;-57
2021/10/15 05:53:31;;;;;;;15.55;8.93;;;;;;;8.07;85.54;98961.94;5027889;28;20018;-58
2021/10/15 05:58:50;;;;;;;12.55;7.75;;;;;;;8.06;85.24;98956.88;5019831;28;20040;-57
2021/10/15 06:01:22;;;;;;;12.63;6.80;;;;;;;8.16;85.32;98957.81;5009496;28;20549;-57
2021/10/15 06:15:12;;;;;;;12.02;7.25;;;;;;;7.89;86.00;98927.13;5006191;28;20492;-57
2021/10/15 06:17:43;;;;;;;11.88;7.30;;;;;;;7.99;86.09;98955.72;5006159;28;20049;-56
2021/10/15 06:20:10;;;;;;;12.23;7.32;;;;;;;7.76;85.82;98913.47;5019558;28;20392;-57
2021/10/15 06:22:36;;;;;;;13.13;7.93;;;;;;;8.02;86.44;98948.53;5016409;28;20032;-58
2021/10/15 06:25:02;;;;;;;12.50;7.28;;;;;;;8.02;86.67;98955.50;5004899;28;20400;-57
2021/10/15 06:27:27;;;;;;;11.88;7.25;;;;;;;8.00;85.97;98940.06;5021137;28;20025;-57
2021/10/15 06:29:53;;;;;;;10.50;7.05;;;;;;;8.06;85.96;98956.88;5023394;28;20033;-57
2021/10/15 06:32:20;;;;;;;12.52;7.22;;;;;;;8.04;85.74;98945.81;5030877;28;20464;-57
2021/10/15 06:34:46;;;;;;;10.88;7.05;;;;;;;7.98;85.36;98935.97;5018612;28;20051;-57
2021/10/15 06:37:11;;;;;;;11.10;7.15;;;;;;;8.06;85.56;98956.88;5007831;28;20025;-57
2021/10/15 06:39:38;;;;;;;11.07;6.95;;;;;;;7.95;86.15;98952.53;5015906;28;20171;-57
2021/10/15 06:42:04;;;;;;;12.73;7.57;;;;;;;8.06;85.75;98949.94;5015967;28;20030;-57
2021/10/15 06:44:29;;;;;;;12.90;7.18;;;;;;;8.07;85.56;98953.38;5005049;28;20032;-57
2021/10/15 06:46:54;;;;;;;12.40;7.10;;;;;;;7.80;85.63;98904.56;5018990;28;20420;-57
2021/10/15 06:49:20;;;;;;;11.15;7.28;;;;;;;8.01;85.97;98951.22;5021837;28;20022;-57
2021/10/15 06:51:48;;;;;;;11.88;7.20;;;;;;;8.03;86.11;98957.97;5020279;28;20022;-57
2021/10/15 06:54:15;;;;;;;11.70;7.00;;;;;;;8.07;85.82;98961.94;5019671;28;20527;-57
2021/10/15 06:56:40;;;;;;;13.93;7.57;;;;;;;7.91;85.87;98947.75;5016421;28;20047;-57
2021/10/15 06:59:05;;;;;;;10.60;7.00;;;;;;;7.91;86.35;98948.56;5020789;28;20551;-57
2021/10/15 07:01:32;;;;;;;12.20;7.20;;;;;;;7.99;86.45;98966.06;5017838;28;20034;-58
2021/10/15 07:03:57;;;;;;;13.60;7.57;;;;;;;8.06;86.21;98970.66;5012178;28;20099;-57
2021/10/15 07:06:23;;;;;;;11.13;7.10;;;;;;;8.12;86.36;98961.56;5026457;28;20069;-57
2021/10/15 07:08:49;;;;;;;12.00;7.70;;;;;;;8.11;86.18;98965.13;5023280;28;20037;-57
2021/10/15 07:11:14;;;;;;;11.57;7.40;;;;;;;8.17;86.11;98969.00;5027281;28;20484;-57
2021/10/15 07:13:39;;;;;;;14.50;8.07;;;;;;;8.16;85.49;98951.78;5025532;28;20096;-56
2021/10/15 07:16:05;;;;;;;11.90;7.25;;;;;;;8.06;86.06;98949.94;5023211;28;20063;-57
2021/10/15 07:18:30;;;;;;;11.25;7.32;;;;;;;8.05;85.63;98948.31;5021862;28;20317;-58
2021/10/15 07:20:56;;;;;;;12.95;8.23;;;;;;;8.07;86.04;98958.53;5030324;28;20071;-57
2021/10/15 07:23:21;;;;;;;11.07;6.97;;;;;;;8.11;85.44;98959.13;5026602;28;20595;-57
2021/10/15 07:25:46;;;;;;;11.85;6.95;;;;;;;7.88;84.36;98908.19;5009288;28;20038;-57
2021/10/15 07:28:13;;;;;;;11.02;6.63;;;;;;;8.16;84.46;98951.78;5010688;28;20030;-57
2021/10/15 07:30:38;;;;;;;13.30;7.47;;;;;;;8.11;83.78;98948.78;5023527;28;20651;-57
2021/10/15 07:33:04;;;;;;;14.77;7.07;;;;;;;8.17;84.71;98951.69;5024298;28;20025;-58
2021/10/15 07:35:29;;;;;;;12.07;7.30;;;;;;;8.16;84.46;98942.28;5029765;28;20453;-57
2021/10/15 07:37:55;;;;;;;14.55;7.68;;;;;;;8.19;84.48;98942.00;5025620;28;20115;-57
2021/10/15 07:40:20;;;;;;;17.80;7.75;;;;;;;7.97;84.38;98904.03;5037759;28;20033;-57
2021/10/15 07:42:46;;;;;;;17.90;8.02;;;;;;;8.28;84.09;98948.25;5016521;28;20033;-57
2021/10/15 07:45:11;;;;;;;11.65;6.63;;;;;;;8.26;83.96;98944.94;5030537;28;20018;-57
2021/10/15 07:47:36;;;;;;;16.92;7.55;;;;;;;8.21;83.82;98953.09;5033552;28;20453;-56
2021/10/15 07:50:02;;;;;;;16.33;8.00;;;;;;;7.99;83.71;98907.31;5017053;28;20456;-57
2021/10/15 07:52:28;;;;;;;12.73;7.43;;;;;;;8.06;83.33;98907.69;5004574;28;20512;-57
2021/10/15 07:54:53;;;;;;;12.80;7.35;;;;;;;8.31;82.95;98936.84;5028935;28;20029;-57
2021/10/15 07:57:18;;;;;;;13.65;7.53;;;;;;;8.36;82.02;98937.25;5020264;28;20039;-57
2021/10/15 07:59:44;;;;;;;15.00;7.68;;;;;;;8.41;82.18;98940.31;5021453;28;20033;-57
2021/10/15 08:02:10;;;;;;;12.38;7.45;;;;;;;8.34;81.79;98924.47;5018517;28;20039;-58
2021/10/15 08:04:35;;;;;;;11.00;6.70;;;;;;;8.50;81.32;98931.84;5022893;28;20022;-57
2021/10/15 08:07:02;;;;;;;11.93;6.95;;;;;;;8.51;80.87;98936.09;5023898;28;20029;-58
2021/10/15 08:09:27;;;;;;;16.10;8.43;;;;;;;8.20;80.60;98883.28;5031147;28;20027;-57
2021/10/15 08:11:53;;;;;;;15.88;8.45;;;;;;;8.64;80.96;98939.31;5022087;28;20033;-57
2021/10/15 08:14:20;;;;;;;10.52;6.85;;;;;;;8.59;79.80;98938.88;5023653;28;20029;-56
2021/10/15 08:16:45;;;;;;;12.57;7.10;;;;;;;8.62;80.28;98930.84;5031339;28;20013;-58
2021/10/15 08:19:10;;;;;;;13.82;7.35;;;;;;;8.71;80.07;98931.88;5021985;28;20566;-57
2021/10/15 08:21:36;;;;;;;14.18;7.35;;;;;;;8.52;80.10;98888.47;5015183;28;20488;-57
2021/10/15 08:24:01;;;;;;;13.50;8.02;;;;;;;8.53;79.78;98899.69;5021120;28;20057;-57
2021/10/15 08:26:26;;;;;;;12.63;7.70;;;;;;;8.61;79.44;98921.41;5020567;28;20033;-57
2021/10/15 08:28:58;;;;;;;20.02;8.10;;;;;;;8.69;79.38;98935.53;5018342;28;20041;-57
2021/10/15 08:31:24;;;;;;;14.20;8.55;;;;;;;8.39;79.05;98882.63;5025016;28;20029;-58
2021/10/15 08:33:49;;;;;;;15.98;7.72;;;;;;;8.70;78.73;98927.63;5016515;28;20034;-58
2021/10/15 08:36:15;;;;;;;12.77;7.25;;;;;;;8.79;78.78;98926.88;5022367;28;20033;-57
2021/10/15 08:38:41;;;;;;;12.48;7.15;;;;;;;8.89;78.29;98926.97;5017634;28;20532;-57
2021/10/15 08:41:06;;;;;;;13.77;7.68;;;;;;;8.94;77.08;98924.78;5025460;28;20033;-57
2021/10/15 08:43:37;;;;;;;10.43;6.90;;;;;;;8.97;79.19;98921.13;5019829;28;20026;-58
2021/10/15 08:46:03;;;;;;;10.48;6.40;;;;;;;8.74;77.82;98873.75;5018744;28;20128;-57
2021/10/15 08:48:28;;;;;;;12.57;7.10;;;;;;;8.71;77.04;98861.06;5028393;28;20568;-57
2021/10/15 08:50:54;;;;;;;12.70;6.95;;;;;;;9.09;79.47;98907.16;5024586;28;20090;-57
2021/10/15 08:53:20;;;;;;;13.52;7.18;;;;;;;9.10;79.29;98908.78;5022901;28;20032;-58
2021/10/15 08:55:46;;;;;;;11.70;7.20;;;;;;;9.09;79.93;98912.34;5018069;28;20022;-57
2021/10/15 08:58:11;;;;;;;11.95;7.05;;;;;;;9.09;79.67;98896.78;5016888;28;20135;-57
2021/10/15 09:00:38;;;;;;;11.43;6.45;;;;;;;9.19;79.79;98905.41;5015492;28;20383;-57
2021/10/15 09:03:18;;;;;;;10.65;6.68;;;;;;;9.26;80.88;98907.50;5023883;28;20033;-58
2021/10/15 09:05:56;;;;;;;12.18;6.40;;;;;;;8.70;80.62;98831.72;5029586;28;20051;-57
2021/10/15 09:08:26;;;;;;;10.95;6.65;;;;;;;9.26;80.98;98904.91;5021571;28;20384;-57
2021/10/15 09:10:52;;;;;;;11.48;6.82;;;;;;;9.26;79.53;98895.34;5022647;28;20032;-58
2021/10/15 09:13:20;;;;;;;13.63;6.22;;;;;;;9.29;77.19;98900.28;5026266;28;20384;-58
2021/10/15 09:15:47;;;;;;;12.80;6.80;;;;;;;9.30;77.59;98895.91;5020356;28;20032;-57
2021/10/15 09:18:15;;;;;;;11.82;6.53;;;;;;;9.34;78.79;98890.31;5022866;28;20094;-61
2021/10/15 09:20:41;;;;;;;11.60;6.22;;;;;;;9.38;78.32;98870.97;5021753;28;20021;-56
2021/10/15 09:23:07;;;;;;;12.00;6.90;;;;;;;9.42;77.91;98876.72;5032708;28;20020;-57
2021/10/15 09:25:34;;;;;;;15.23;6.68;;;;;;;9.47;76.84;98877.13;5022928;28;20021;-58
2021/10/15 09:28:00;;;;;;;12.77;6.47;;;;;;;9.26;73.42;98850.44;5021484;28;20081;-57
2021/10/15 09:30:28;;;;;;;10.85;6.30;;;;;;;9.51;75.02;98883.72;5014852;28;20022;-59
2021/10/15 09:32:59;;;;;;;14.07;7.05;;;;;;;9.28;73.43;98838.16;5011300;28;20029;-57
2021/10/15 09:35:25;;;;;;;13.88;7.70;;;;;;;9.59;73.94;98883.06;5004707;28;20041;-58
2021/10/15 09:37:59;;;;;;;15.48;7.85;;;;;;;9.67;73.99;98882.38;5008242;28;20037;-57
2021/10/15 09:40:25;;;;;;;14.63;7.70;;;;;;;9.73;73.71;98874.91;5027395;28;20041;-57
2021/10/15 09:42:52;;;;;;;14.15;7.72;;;;;;;9.81;73.72;98871.63;5013932;28;20061;-57
2021/10/15 09:45:19;;;;;;;11.65;7.05;;;;;;;9.71;73.56;98843.06;5025608;28;20021;-57
2021/10/15 09:47:50;;;;;;;16.65;8.18;;;;;;;9.90;72.16;98864.81;5019682;28;20477;-57
2021/10/15 09:50:21;;;;;;;14.40;7.53;;;;;;;9.98;72.35;98863.22;5023535;28;20033;-57
2021/10/15 09:52:51;;;;;;;18.02;8.00;;;;;;;10.10;71.52;98863.88;5024933;28;20025;-57
2021/10/15 09:55:21;;;;;;;14.95;8.18;;;;;;;9.94;71.46;98824.63;5014182;28;20571;-57
2021/10/15 09:57:51;;;;;;;14.48;8.00;;;;;;;10.32;71.51;98855.03;5019348;28;20045;-57
2021/10/15 10:00:18;;;;;;;13.23;8.32;;;;;;;10.35;70.42;98856.56;5014719;28;20103;-56
2021/10/15 10:02:44;;;;;;;13.50;8.10;;;;;;;10.30;69.53;98840.53;5007628;28;20026;-57
2021/10/15 10:05:13;;;;;;;16.55;8.55;;;;;;;10.47;68.71;98852.84;5010935;28;20033;-57
2021/10/15 10:07:39;;;;;;;16.88;9.25;;;;;;;10.52;70.72;98832.44;5009206;28;20706;-56
2021/10/15 10:10:07;;;;;;;15.05;8.43;;;;;;;10.63;67.41;98838.47;5010578;28;20028;-58
2021/10/15 10:12:36;;;;;;;15.38;8.98;;;;;;;10.76;65.96;98836.38;5010972;28;20799;-57
2021/10/15 10:15:04;;;;;;;15.82;9.82;;;;;;;10.82;66.39;98819.38;5011560;28;20109;-57
2021/10/15 10:17:31;;;;;;;15.07;9.13;;;;;;;10.77;67.46;98783.41;5001603;28;20037;-57
2021/10/15 10:20:02;;;;;;;14.30;9.45;;;;;;;11.08;68.05;98820.41;5012861;28;20037;-58
2021/10/15 10:22:29;;;;;;;14.63;9.38;;;;;;;11.14;67.67;98819.81;5009031;28;20060;-58
2021/10/15 10:24:55;;;;;;;14.93;9.48;;;;;;;11.07;68.98;98779.72;5013074;28;20444;-58
2021/10/15 10:27:29;;;;;;;18.02;11.75;;;;;;;11.39;68.89;98814.94;5000324;28;20208;-57
2021/10/15 10:29:54;;;;;;;15.73;10.13;;;;;;;11.50;67.95;98819.13;5009138;28;20042;-57
2021/10/15 10:32:22;;;;;;;15.07;10.40;;;;;;;11.57;68.27;98816.75;5022080;28;20039;-57
2021/10/15 10:34:47;;;;;;;18.60;10.23;;;;;;;11.72;67.76;98808.31;5009347;28;20022;-56
2021/10/15 10:37:15;;;;;;;18.13;11.25;;;;;;;11.80;66.59;98804.94;5004067;28;20045;-57
2021/10/15 10:39:41;;;;;;;17.00;10.25;;;;;;;11.97;66.95;98803.34;4986493;28;20121;-57
2021/10/15 10:42:07;;;;;;;16.08;10.35;;;;;;;11.72;65.90;98752.78;5020664;28;20105;-57
2021/10/15 10:44:48;;;;;;;18.08;10.75;;;;;;;11.71;66.92;98745.94;5014383;28;20033;-56
2021/10/15 10:47:22;;;;;;;17.23;10.27;;;;;;;12.05;67.47;98789.59;5012668;28;20034;-57
2021/10/15 10:50:03;;;;;;;18.00;10.18;;;;;;;12.00;68.10;98786.59;5021433;28;20112;-57
2021/10/15 10:52:32;;;;;;;14.68;10.00;;;;;;;12.04;67.39;98783.53;5014505;28;20492;-57
2021/10/15 10:54:57;;;;;;;16.20;10.75;;;;;;;12.11;67.55;98784.56;5007769;28;20044;-57
2021/10/15 10:57:31;;;;;;;16.05;10.55;;;;;;;12.17;66.81;98775.34;5018984;28;20029;-58
2021/10/15 11:00:22;;;;;;;16.50;11.00;;;;;;;12.41;66.10;98779.09;5008796;28;20029;-57
2021/10/15 11:02:52;;;;;;;15.75;9.98;;;;;;;12.36;66.49;98774.34;5011764;28;20017;-57
2021/10/15 11:05:39;;;;;;;22.45;11.57;;;;;;;12.54;67.13;98776.09;5005901;28;20073;-57
2021/10/15 11:08:23;;;;;;;20.27;11.70;;;;;;;12.58;63.49;98772.22;5001825;28;20036;-58
2021/10/15 11:10:49;;;;;;;17.70;11.18;;;;;;;12.70;63.26;98763.16;5011882;28;20033;-58
2021/10/15 11:13:32;;;;;;;17.02;11.05;;;;;;;12.87;63.51;98751.03;5010078;28;20113;-57
2021/10/15 11:15:57;;;;;;;19.48;11.32;;;;;;;12.94;63.04;98751.19;4992211;28;20132;-58
2021/10/15 11:18:23;;;;;;;18.35;11.77;;;;;;;12.93;63.41;98752.19;5020394;28;20410;-57
2021/10/15 11:20:49;;;;;;;17.50;12.57;;;;;;;13.06;61.83;98737.72;5012345;28;20033;-57
2021/10/15 11:23:14;;;;;;;18.08;12.35;;;;;;;13.07;60.83;98733.34;5021272;28;20649;-57
2021/10/15 11:25:41;;;;;;;16.60;11.40;;;;;;;12.80;62.29;98701.25;5014131;28;20033;-56
2021/10/15 11:28:09;;;;;;;19.08;12.45;;;;;;;13.12;61.12;98725.81;5019634;28;20204;-58
2021/10/15 11:30:39;;;;;;;19.15;12.15;;;;;;;13.09;61.71;98723.53;5012782;28;20444;-57
2021/10/15 11:33:07;;;;;;;17.52;12.35;;;;;;;13.14;61.35;98717.84;5025939;28;20441;-60
2021/10/15 11:35:35;;;;;;;18.10;12.15;;;;;;;13.08;61.67;98714.06;5002505;28;20030;-59
2021/10/15 11:38:06;;;;;;;19.17;13.00;;;;;;;13.38;59.26;98693.59;5015330;28;20514;-60
2021/10/15 11:40:34;;;;;;;18.55;12.43;;;;;;;13.43;60.23;98697.41;5008307;28;20029;-59